sensor_id;sensor_type;location;lat;lon;timestamp;temperature;humidity
54006;DHT22;39919;38.160;-122.260;2022-11-15T00:00:53;15.70;45.00
54006;DHT22;39919;38.160;-122.260;2022-11-15T00:03:22;15.70;45.30
54006;DHT22;39919;38.160;-122.260;2022-11-15T00:05:51;15.60;45.40
54006;DHT22;39919;38.160;-122.260;2022-11-15T00:08:19;15.60;45.70
54006;DHT22;39919;38.160;-122.260;2022-11-15T00:10:54;15.50;45.80
54006;DHT22;39919;38.160;-122.260;2022-11-15T00:13:23;15.50;46.20
54006;DHT22;39919;38.160;-122.260;2022-11-15T00:15:53;15.40;46.10
54006;DHT22;39919;38.160;-122.260;2022-11-15T00:18:24;15.40;46.10
54006;DHT22;39919;38.160;-122.260;2022-11-15T00:20:52;15.40;47.30
54006;DHT22;39919;38.160;-122.260;2022-11-15T00:23:20;15.30;46.40
54006;DHT22;39919;38.160;-122.260;2022-11-15T00:25:55;15.20;46.50
54006;DHT22;39919;38.160;-122.260;2022-11-15T00:28:23;15.20;46.80
54006;DHT22;39919;38.160;-122.260;2022-11-15T00:30:53;15.20;46.90
54006;DHT22;39919;38.160;-122.260;2022-11-15T00:33:22;15.10;47.10
54006;DHT22;39919;38.160;-122.260;2022-11-15T00:35:50;15.10;47.20
54006;DHT22;39919;38.160;-122.260;2022-11-15T00:38:18;15.00;47.30
54006;DHT22;39919;38.160;-122.260;2022-11-15T00:40:46;14.90;47.40
54006;DHT22;39919;38.160;-122.260;2022-11-15T00:43:15;14.90;47.80
54006;DHT22;39919;38.160;-122.260;2022-11-15T00:45:43;14.80;48.00
54006;DHT22;39919;38.160;-122.260;2022-11-15T00:48:13;14.70;48.10
54006;DHT22;39919;38.160;-122.260;2022-11-15T00:50:41;14.70;48.20
54006;DHT22;39919;38.160;-122.260;2022-11-15T00:53:09;14.70;48.40
54006;DHT22;39919;38.160;-122.260;2022-11-15T00:55:38;14.60;48.50
54006;DHT22;39919;38.160;-122.260;2022-11-15T00:58:06;14.50;48.70
54006;DHT22;39919;38.160;-122.260;2022-11-15T01:00:34;14.50;48.60
54006;DHT22;39919;38.160;-122.260;2022-11-15T01:03:03;14.40;48.90
54006;DHT22;39919;38.160;-122.260;2022-11-15T01:05:32;14.40;49.10
54006;DHT22;39919;38.160;-122.260;2022-11-15T01:08:01;14.30;52.60
54006;DHT22;39919;38.160;-122.260;2022-11-15T01:10:29;14.30;54.10
54006;DHT22;39919;38.160;-122.260;2022-11-15T01:12:57;14.10;49.40
54006;DHT22;39919;38.160;-122.260;2022-11-15T01:15:26;14.10;49.60
54006;DHT22;39919;38.160;-122.260;2022-11-15T01:17:55;14.10;50.40
54006;DHT22;39919;38.160;-122.260;2022-11-15T01:20:29;14.00;53.70
54006;DHT22;39919;38.160;-122.260;2022-11-15T01:22:59;13.90;51.40
54006;DHT22;39919;38.160;-122.260;2022-11-15T01:25:28;13.80;50.30
54006;DHT22;39919;38.160;-122.260;2022-11-15T01:27:56;13.70;50.80
54006;DHT22;39919;38.160;-122.260;2022-11-15T01:30:24;13.70;50.70
54006;DHT22;39919;38.160;-122.260;2022-11-15T01:32:52;13.60;50.80
54006;DHT22;39919;38.160;-122.260;2022-11-15T01:35:21;13.60;50.90
54006;DHT22;39919;38.160;-122.260;2022-11-15T01:37:49;13.50;51.10
54006;DHT22;39919;38.160;-122.260;2022-11-15T01:40:20;13.40;51.20
54006;DHT22;39919;38.160;-122.260;2022-11-15T01:42:48;13.40;51.30
54006;DHT22;39919;38.160;-122.260;2022-11-15T01:45:16;13.30;51.50
54006;DHT22;39919;38.160;-122.260;2022-11-15T01:47:45;13.20;51.70
54006;DHT22;39919;38.160;-122.260;2022-11-15T01:50:14;13.20;51.90
54006;DHT22;39919;38.160;-122.260;2022-11-15T01:52:43;13.10;52.60
54006;DHT22;39919;38.160;-122.260;2022-11-15T01:55:13;13.10;52.20
54006;DHT22;39919;38.160;-122.260;2022-11-15T01:57:43;13.00;52.30
54006;DHT22;39919;38.160;-122.260;2022-11-15T02:00:13;13.00;52.50
54006;DHT22;39919;38.160;-122.260;2022-11-15T02:02:42;12.90;52.70
54006;DHT22;39919;38.160;-122.260;2022-11-15T02:05:10;12.80;52.90
54006;DHT22;39919;38.160;-122.260;2022-11-15T02:07:38;12.80;53.20
54006;DHT22;39919;38.160;-122.260;2022-11-15T02:10:08;12.70;53.30
54006;DHT22;39919;38.160;-122.260;2022-11-15T02:12:37;12.70;53.40
54006;DHT22;39919;38.160;-122.260;2022-11-15T02:15:08;12.60;53.50
54006;DHT22;39919;38.160;-122.260;2022-11-15T02:17:43;12.60;53.80
54006;DHT22;39919;38.160;-122.260;2022-11-15T02:20:34;12.50;53.90
54006;DHT22;39919;38.160;-122.260;2022-11-15T02:23:13;12.50;54.20
54006;DHT22;39919;38.160;-122.260;2022-11-15T02:28:29;12.40;54.50
54006;DHT22;39919;38.160;-122.260;2022-11-15T02:31:05;12.30;54.70
54006;DHT22;39919;38.160;-122.260;2022-11-15T02:33:41;12.30;54.90
54006;DHT22;39919;38.160;-122.260;2022-11-15T02:36:11;12.20;54.90
54006;DHT22;39919;38.160;-122.260;2022-11-15T02:38:44;12.20;55.00
54006;DHT22;39919;38.160;-122.260;2022-11-15T02:41:16;12.20;55.10
54006;DHT22;39919;38.160;-122.260;2022-11-15T02:43:47;12.20;55.20
54006;DHT22;39919;38.160;-122.260;2022-11-15T02:46:27;12.10;55.30
54006;DHT22;39919;38.160;-122.260;2022-11-15T02:49:16;12.10;55.40
54006;DHT22;39919;38.160;-122.260;2022-11-15T02:51:48;12.10;55.40
54006;DHT22;39919;38.160;-122.260;2022-11-15T02:54:17;12.10;55.60
54006;DHT22;39919;38.160;-122.260;2022-11-15T02:56:49;12.10;55.60
54006;DHT22;39919;38.160;-122.260;2022-11-15T02:59:29;12.10;55.70
54006;DHT22;39919;38.160;-122.260;2022-11-15T03:02:04;12.00;55.70
54006;DHT22;39919;38.160;-122.260;2022-11-15T03:04:37;12.00;55.80
54006;DHT22;39919;38.160;-122.260;2022-11-15T03:07:07;11.90;55.80
54006;DHT22;39919;38.160;-122.260;2022-11-15T03:09:40;11.90;55.90
54006;DHT22;39919;38.160;-122.260;2022-11-15T03:12:11;11.80;55.80
54006;DHT22;39919;38.160;-122.260;2022-11-15T03:14:42;11.80;55.90
54006;DHT22;39919;38.160;-122.260;2022-11-15T03:17:18;11.80;56.30
54006;DHT22;39919;38.160;-122.260;2022-11-15T03:19:50;11.80;56.30
54006;DHT22;39919;38.160;-122.260;2022-11-15T03:22:20;11.70;56.40
54006;DHT22;39919;38.160;-122.260;2022-11-15T03:24:51;11.70;56.60
54006;DHT22;39919;38.160;-122.260;2022-11-15T03:27:21;11.70;56.60
54006;DHT22;39919;38.160;-122.260;2022-11-15T03:29:54;11.60;56.80
54006;DHT22;39919;38.160;-122.260;2022-11-15T03:32:26;11.60;56.90
54006;DHT22;39919;38.160;-122.260;2022-11-15T03:34:56;11.60;56.90
54006;DHT22;39919;38.160;-122.260;2022-11-15T03:37:27;11.60;56.90
54006;DHT22;39919;38.160;-122.260;2022-11-15T03:39:58;11.50;57.00
54006;DHT22;39919;38.160;-122.260;2022-11-15T03:42:27;11.50;57.00
54006;DHT22;39919;38.160;-122.260;2022-11-15T03:44:58;11.50;57.00
54006;DHT22;39919;38.160;-122.260;2022-11-15T03:47:32;11.40;57.40
54006;DHT22;39919;38.160;-122.260;2022-11-15T03:50:02;11.40;57.40
54006;DHT22;39919;38.160;-122.260;2022-11-15T03:52:33;11.40;57.40
54006;DHT22;39919;38.160;-122.260;2022-11-15T03:55:02;11.30;57.40
54006;DHT22;39919;38.160;-122.260;2022-11-15T03:57:31;11.30;57.50
54006;DHT22;39919;38.160;-122.260;2022-11-15T04:00:00;11.20;58.20
54006;DHT22;39919;38.160;-122.260;2022-11-15T04:02:28;11.10;58.20
54006;DHT22;39919;38.160;-122.260;2022-11-15T04:04:58;11.10;58.30
54006;DHT22;39919;38.160;-122.260;2022-11-15T04:07:30;11.00;58.40
54006;DHT22;39919;38.160;-122.260;2022-11-15T04:09:58;10.90;58.50
54006;DHT22;39919;38.160;-122.260;2022-11-15T04:12:29;10.90;58.90
54006;DHT22;39919;38.160;-122.260;2022-11-15T04:15:01;10.90;59.10
54006;DHT22;39919;38.160;-122.260;2022-11-15T04:17:37;10.80;59.00
54006;DHT22;39919;38.160;-122.260;2022-11-15T04:20:11;10.80;59.60
54006;DHT22;39919;38.160;-122.260;2022-11-15T04:22:57;10.70;59.70
54006;DHT22;39919;38.160;-122.260;2022-11-15T04:25:42;10.70;59.60
54006;DHT22;39919;38.160;-122.260;2022-11-15T04:28:11;10.60;60.00
54006;DHT22;39919;38.160;-122.260;2022-11-15T04:30:39;10.50;60.00
54006;DHT22;39919;38.160;-122.260;2022-11-15T04:33:08;10.50;61.30
54006;DHT22;39919;38.160;-122.260;2022-11-15T04:35:38;10.40;61.80
54006;DHT22;39919;38.160;-122.260;2022-11-15T04:38:06;10.30;61.10
54006;DHT22;39919;38.160;-122.260;2022-11-15T04:40:34;10.30;61.00
54006;DHT22;39919;38.160;-122.260;2022-11-15T04:43:02;10.20;61.00
54006;DHT22;39919;38.160;-122.260;2022-11-15T04:45:30;10.10;60.90
54006;DHT22;39919;38.160;-122.260;2022-11-15T04:47:58;10.00;61.80
54006;DHT22;39919;38.160;-122.260;2022-11-15T04:50:26;9.90;61.30
54006;DHT22;39919;38.160;-122.260;2022-11-15T04:52:56;9.90;62.30
54006;DHT22;39919;38.160;-122.260;2022-11-15T04:55:24;9.80;61.70
54006;DHT22;39919;38.160;-122.260;2022-11-15T04:58:01;9.70;62.80
54006;DHT22;39919;38.160;-122.260;2022-11-15T05:00:30;9.60;63.00
54006;DHT22;39919;38.160;-122.260;2022-11-15T05:02:58;9.50;63.00
54006;DHT22;39919;38.160;-122.260;2022-11-15T05:05:43;9.50;63.70
54006;DHT22;39919;38.160;-122.260;2022-11-15T05:08:13;9.50;63.60
54006;DHT22;39919;38.160;-122.260;2022-11-15T05:10:41;9.40;64.00
54006;DHT22;39919;38.160;-122.260;2022-11-15T05:13:09;9.30;64.30
54006;DHT22;39919;38.160;-122.260;2022-11-15T05:15:37;9.30;64.90
54006;DHT22;39919;38.160;-122.260;2022-11-15T05:18:06;9.20;65.00
54006;DHT22;39919;38.160;-122.260;2022-11-15T05:20:34;9.20;65.50
54006;DHT22;39919;38.160;-122.260;2022-11-15T05:23:03;9.10;65.20
54006;DHT22;39919;38.160;-122.260;2022-11-15T05:25:33;9.00;65.70
54006;DHT22;39919;38.160;-122.260;2022-11-15T05:28:01;9.00;65.50
54006;DHT22;39919;38.160;-122.260;2022-11-15T05:30:29;8.90;65.50
54006;DHT22;39919;38.160;-122.260;2022-11-15T05:33:00;8.80;65.50
54006;DHT22;39919;38.160;-122.260;2022-11-15T05:35:29;8.80;65.90
54006;DHT22;39919;38.160;-122.260;2022-11-15T05:37:59;8.80;66.30
54006;DHT22;39919;38.160;-122.260;2022-11-15T05:40:27;8.70;66.20
54006;DHT22;39919;38.160;-122.260;2022-11-15T05:42:57;8.70;66.60
54006;DHT22;39919;38.160;-122.260;2022-11-15T05:45:29;8.60;66.50
54006;DHT22;39919;38.160;-122.260;2022-11-15T05:47:57;8.60;66.00
54006;DHT22;39919;38.160;-122.260;2022-11-15T05:50:26;8.60;65.70
54006;DHT22;39919;38.160;-122.260;2022-11-15T05:52:55;8.50;66.50
54006;DHT22;39919;38.160;-122.260;2022-11-15T05:55:23;8.50;66.30
54006;DHT22;39919;38.160;-122.260;2022-11-15T05:57:52;8.40;66.10
54006;DHT22;39919;38.160;-122.260;2022-11-15T06:00:22;8.40;67.20
54006;DHT22;39919;38.160;-122.260;2022-11-15T06:02:50;8.30;66.90
54006;DHT22;39919;38.160;-122.260;2022-11-15T06:05:18;8.30;67.30
54006;DHT22;39919;38.160;-122.260;2022-11-15T06:07:46;8.20;67.80
54006;DHT22;39919;38.160;-122.260;2022-11-15T06:10:14;8.20;67.70
54006;DHT22;39919;38.160;-122.260;2022-11-15T06:12:43;8.10;68.10
54006;DHT22;39919;38.160;-122.260;2022-11-15T06:15:11;8.10;67.70
54006;DHT22;39919;38.160;-122.260;2022-11-15T06:17:41;8.10;67.80
54006;DHT22;39919;38.160;-122.260;2022-11-15T06:20:09;8.00;68.20
54006;DHT22;39919;38.160;-122.260;2022-11-15T06:22:38;8.00;68.60
54006;DHT22;39919;38.160;-122.260;2022-11-15T06:25:06;7.90;69.80
54006;DHT22;39919;38.160;-122.260;2022-11-15T06:27:34;7.90;68.60
54006;DHT22;39919;38.160;-122.260;2022-11-15T06:30:03;7.80;68.10
54006;DHT22;39919;38.160;-122.260;2022-11-15T06:32:31;7.80;68.20
54006;DHT22;39919;38.160;-122.260;2022-11-15T06:35:01;7.80;68.30
54006;DHT22;39919;38.160;-122.260;2022-11-15T06:37:29;7.70;68.40
54006;DHT22;39919;38.160;-122.260;2022-11-15T06:39:57;7.70;69.00
54006;DHT22;39919;38.160;-122.260;2022-11-15T06:42:26;7.60;69.00
54006;DHT22;39919;38.160;-122.260;2022-11-15T06:44:55;7.60;68.80
54006;DHT22;39919;38.160;-122.260;2022-11-15T06:47:23;7.50;68.50
54006;DHT22;39919;38.160;-122.260;2022-11-15T06:49:54;7.50;69.00
54006;DHT22;39919;38.160;-122.260;2022-11-15T06:52:24;7.50;69.70
54006;DHT22;39919;38.160;-122.260;2022-11-15T06:54:52;7.40;69.90
54006;DHT22;39919;38.160;-122.260;2022-11-15T06:57:20;7.40;70.00
54006;DHT22;39919;38.160;-122.260;2022-11-15T06:59:49;7.30;70.00
54006;DHT22;39919;38.160;-122.260;2022-11-15T07:02:17;7.30;70.00
54006;DHT22;39919;38.160;-122.260;2022-11-15T07:04:45;7.30;70.80
54006;DHT22;39919;38.160;-122.260;2022-11-15T07:07:13;7.20;70.50
54006;DHT22;39919;38.160;-122.260;2022-11-15T07:09:43;7.20;70.60
54006;DHT22;39919;38.160;-122.260;2022-11-15T07:12:11;7.10;70.60
54006;DHT22;39919;38.160;-122.260;2022-11-15T07:14:40;7.10;70.60
54006;DHT22;39919;38.160;-122.260;2022-11-15T07:17:08;7.10;70.40
54006;DHT22;39919;38.160;-122.260;2022-11-15T07:19:37;7.00;71.20
54006;DHT22;39919;38.160;-122.260;2022-11-15T07:22:05;7.00;70.80
54006;DHT22;39919;38.160;-122.260;2022-11-15T07:24:33;6.90;70.60
54006;DHT22;39919;38.160;-122.260;2022-11-15T07:27:03;6.90;71.40
54006;DHT22;39919;38.160;-122.260;2022-11-15T07:29:31;6.80;71.80
54006;DHT22;39919;38.160;-122.260;2022-11-15T07:31:59;6.80;71.50
54006;DHT22;39919;38.160;-122.260;2022-11-15T07:34:27;6.70;72.30
54006;DHT22;39919;38.160;-122.260;2022-11-15T07:36:56;6.70;73.00
54006;DHT22;39919;38.160;-122.260;2022-11-15T07:39:24;6.70;72.80
54006;DHT22;39919;38.160;-122.260;2022-11-15T07:41:52;6.60;72.20
54006;DHT22;39919;38.160;-122.260;2022-11-15T07:44:44;6.60;71.80
54006;DHT22;39919;38.160;-122.260;2022-11-15T07:47:15;6.60;71.90
54006;DHT22;39919;38.160;-122.260;2022-11-15T07:49:43;6.50;72.30
54006;DHT22;39919;38.160;-122.260;2022-11-15T07:52:11;6.50;73.30
54006;DHT22;39919;38.160;-122.260;2022-11-15T07:54:40;6.40;73.70
54006;DHT22;39919;38.160;-122.260;2022-11-15T07:57:08;6.40;73.30
54006;DHT22;39919;38.160;-122.260;2022-11-15T07:59:36;6.40;73.90
54006;DHT22;39919;38.160;-122.260;2022-11-15T08:02:08;6.30;74.00
54006;DHT22;39919;38.160;-122.260;2022-11-15T08:04:36;6.30;73.30
54006;DHT22;39919;38.160;-122.260;2022-11-15T08:07:04;6.30;73.60
54006;DHT22;39919;38.160;-122.260;2022-11-15T08:09:32;6.20;74.00
54006;DHT22;39919;38.160;-122.260;2022-11-15T08:12:00;6.20;74.60
54006;DHT22;39919;38.160;-122.260;2022-11-15T08:14:29;6.20;75.00
54006;DHT22;39919;38.160;-122.260;2022-11-15T08:16:57;6.10;75.10
54006;DHT22;39919;38.160;-122.260;2022-11-15T08:19:27;6.10;75.40
54006;DHT22;39919;38.160;-122.260;2022-11-15T08:21:56;6.10;75.40
54006;DHT22;39919;38.160;-122.260;2022-11-15T08:24:24;6.10;75.30
54006;DHT22;39919;38.160;-122.260;2022-11-15T08:26:52;6.00;74.70
54006;DHT22;39919;38.160;-122.260;2022-11-15T08:29:21;6.00;74.80
54006;DHT22;39919;38.160;-122.260;2022-11-15T08:31:50;6.00;74.60
54006;DHT22;39919;38.160;-122.260;2022-11-15T08:34:19;6.00;75.40
54006;DHT22;39919;38.160;-122.260;2022-11-15T08:36:49;6.00;75.80
54006;DHT22;39919;38.160;-122.260;2022-11-15T08:39:18;5.90;75.90
54006;DHT22;39919;38.160;-122.260;2022-11-15T08:41:48;5.90;75.80
54006;DHT22;39919;38.160;-122.260;2022-11-15T08:44:16;5.90;75.90
54006;DHT22;39919;38.160;-122.260;2022-11-15T08:46:45;5.90;75.70
54006;DHT22;39919;38.160;-122.260;2022-11-15T08:49:13;5.80;75.10
54006;DHT22;39919;38.160;-122.260;2022-11-15T08:51:41;5.80;75.30
54006;DHT22;39919;38.160;-122.260;2022-11-15T08:54:13;5.80;75.00
54006;DHT22;39919;38.160;-122.260;2022-11-15T08:56:41;5.70;74.70
54006;DHT22;39919;38.160;-122.260;2022-11-15T08:59:10;5.70;74.90
54006;DHT22;39919;38.160;-122.260;2022-11-15T09:01:38;5.70;75.20
54006;DHT22;39919;38.160;-122.260;2022-11-15T09:04:06;5.70;76.10
54006;DHT22;39919;38.160;-122.260;2022-11-15T09:06:34;5.60;76.30
54006;DHT22;39919;38.160;-122.260;2022-11-15T09:09:02;5.60;75.80
54006;DHT22;39919;38.160;-122.260;2022-11-15T09:11:32;5.60;75.30
54006;DHT22;39919;38.160;-122.260;2022-11-15T09:14:00;5.50;75.80
54006;DHT22;39919;38.160;-122.260;2022-11-15T09:16:30;5.50;76.60
54006;DHT22;39919;38.160;-122.260;2022-11-15T09:18:58;5.50;77.00
54006;DHT22;39919;38.160;-122.260;2022-11-15T09:21:26;5.40;77.10
54006;DHT22;39919;38.160;-122.260;2022-11-15T09:26:40;5.40;76.90
54006;DHT22;39919;38.160;-122.260;2022-11-15T09:29:09;5.40;77.00
54006;DHT22;39919;38.160;-122.260;2022-11-15T09:31:37;5.30;77.60
54006;DHT22;39919;38.160;-122.260;2022-11-15T09:34:08;5.30;77.90
54006;DHT22;39919;38.160;-122.260;2022-11-15T09:36:37;5.30;77.50
54006;DHT22;39919;38.160;-122.260;2022-11-15T09:39:05;5.30;77.00
54006;DHT22;39919;38.160;-122.260;2022-11-15T09:47:10;5.20;76.40
54006;DHT22;39919;38.160;-122.260;2022-11-15T09:49:43;5.10;76.50
54006;DHT22;39919;38.160;-122.260;2022-11-15T09:52:11;5.10;76.50
54006;DHT22;39919;38.160;-122.260;2022-11-15T09:54:40;5.10;77.60
54006;DHT22;39919;38.160;-122.260;2022-11-15T09:57:11;5.00;77.60
54006;DHT22;39919;38.160;-122.260;2022-11-15T09:59:42;5.00;78.00
54006;DHT22;39919;38.160;-122.260;2022-11-15T10:07:48;4.90;78.40
54006;DHT22;39919;38.160;-122.260;2022-11-15T10:10:20;4.90;78.90
54006;DHT22;39919;38.160;-122.260;2022-11-15T10:12:52;4.90;79.40
54006;DHT22;39919;38.160;-122.260;2022-11-15T10:15:21;4.90;79.90
54006;DHT22;39919;38.160;-122.260;2022-11-15T10:18:06;4.80;79.90
54006;DHT22;39919;38.160;-122.260;2022-11-15T10:20:40;4.80;80.40
54006;DHT22;39919;38.160;-122.260;2022-11-15T10:23:13;4.80;79.80
54006;DHT22;39919;38.160;-122.260;2022-11-15T10:25:42;4.70;79.20
54006;DHT22;39919;38.160;-122.260;2022-11-15T10:28:13;4.70;79.70
54006;DHT22;39919;38.160;-122.260;2022-11-15T10:30:42;4.70;79.60
54006;DHT22;39919;38.160;-122.260;2022-11-15T10:33:22;4.70;80.40
54006;DHT22;39919;38.160;-122.260;2022-11-15T10:38:42;4.70;80.50
54006;DHT22;39919;38.160;-122.260;2022-11-15T10:41:19;4.60;80.60
54006;DHT22;39919;38.160;-122.260;2022-11-15T10:44:01;4.60;80.20
54006;DHT22;39919;38.160;-122.260;2022-11-15T10:46:30;4.50;80.20
54006;DHT22;39919;38.160;-122.260;2022-11-15T10:49:05;4.50;81.00
54006;DHT22;39919;38.160;-122.260;2022-11-15T10:51:40;4.50;81.60
54006;DHT22;39919;38.160;-122.260;2022-11-15T10:54:11;4.50;82.10
54006;DHT22;39919;38.160;-122.260;2022-11-15T10:56:40;4.40;82.60
54006;DHT22;39919;38.160;-122.260;2022-11-15T10:59:14;4.40;82.60
54006;DHT22;39919;38.160;-122.260;2022-11-15T11:01:47;4.40;82.40
54006;DHT22;39919;38.160;-122.260;2022-11-15T11:04:15;4.30;83.00
54006;DHT22;39919;38.160;-122.260;2022-11-15T11:06:47;4.30;82.60
54006;DHT22;39919;38.160;-122.260;2022-11-15T11:09:26;4.30;82.60
54006;DHT22;39919;38.160;-122.260;2022-11-15T11:11:56;4.30;83.20
54006;DHT22;39919;38.160;-122.260;2022-11-15T11:14:25;4.30;83.30
54006;DHT22;39919;38.160;-122.260;2022-11-15T11:16:54;4.20;83.20
54006;DHT22;39919;38.160;-122.260;2022-11-15T11:19:30;4.20;82.60
54006;DHT22;39919;38.160;-122.260;2022-11-15T11:22:00;4.20;82.60
54006;DHT22;39919;38.160;-122.260;2022-11-15T11:24:35;4.10;82.80
54006;DHT22;39919;38.160;-122.260;2022-11-15T11:27:08;4.20;83.50
54006;DHT22;39919;38.160;-122.260;2022-11-15T11:29:44;4.10;84.20
54006;DHT22;39919;38.160;-122.260;2022-11-15T11:32:20;4.10;84.20
54006;DHT22;39919;38.160;-122.260;2022-11-15T11:34:54;4.10;84.10
54006;DHT22;39919;38.160;-122.260;2022-11-15T11:37:25;4.00;83.60
54006;DHT22;39919;38.160;-122.260;2022-11-15T11:40:01;4.00;84.50
54006;DHT22;39919;38.160;-122.260;2022-11-15T11:42:34;4.00;84.70
54006;DHT22;39919;38.160;-122.260;2022-11-15T11:45:10;4.00;84.10
54006;DHT22;39919;38.160;-122.260;2022-11-15T11:47:46;3.90;84.30
54006;DHT22;39919;38.160;-122.260;2022-11-15T11:50:17;3.90;84.90
54006;DHT22;39919;38.160;-122.260;2022-11-15T11:52:51;3.90;85.70
54006;DHT22;39919;38.160;-122.260;2022-11-15T11:55:22;3.90;86.00
54006;DHT22;39919;38.160;-122.260;2022-11-15T11:57:53;3.80;86.00
54006;DHT22;39919;38.160;-122.260;2022-11-15T12:00:25;3.80;86.90
54006;DHT22;39919;38.160;-122.260;2022-11-15T12:03:00;3.80;86.80
54006;DHT22;39919;38.160;-122.260;2022-11-15T12:05:32;3.80;86.00
54006;DHT22;39919;38.160;-122.260;2022-11-15T12:08:04;3.80;86.20
54006;DHT22;39919;38.160;-122.260;2022-11-15T12:10:39;3.80;86.80
54006;DHT22;39919;38.160;-122.260;2022-11-15T12:13:10;3.70;86.40
54006;DHT22;39919;38.160;-122.260;2022-11-15T12:15:41;3.70;87.80
54006;DHT22;39919;38.160;-122.260;2022-11-15T12:18:12;3.70;89.10
54006;DHT22;39919;38.160;-122.260;2022-11-15T12:20:42;3.70;89.30
54006;DHT22;39919;38.160;-122.260;2022-11-15T12:23:17;3.70;89.10
54006;DHT22;39919;38.160;-122.260;2022-11-15T12:25:50;3.70;89.20
54006;DHT22;39919;38.160;-122.260;2022-11-15T12:28:20;3.70;89.10
54006;DHT22;39919;38.160;-122.260;2022-11-15T12:30:53;3.60;89.30
54006;DHT22;39919;38.160;-122.260;2022-11-15T12:33:29;3.60;89.50
54006;DHT22;39919;38.160;-122.260;2022-11-15T12:35:58;3.60;89.20
54006;DHT22;39919;38.160;-122.260;2022-11-15T12:41:15;3.60;89.70
54006;DHT22;39919;38.160;-122.260;2022-11-15T12:43:44;3.60;89.20
54006;DHT22;39919;38.160;-122.260;2022-11-15T12:46:19;3.60;90.30
54006;DHT22;39919;38.160;-122.260;2022-11-15T12:48:49;3.60;90.50
54006;DHT22;39919;38.160;-122.260;2022-11-15T12:51:19;3.60;90.70
54006;DHT22;39919;38.160;-122.260;2022-11-15T12:53:47;3.50;90.60
54006;DHT22;39919;38.160;-122.260;2022-11-15T12:56:21;3.50;90.50
54006;DHT22;39919;38.160;-122.260;2022-11-15T12:58:52;3.50;90.60
54006;DHT22;39919;38.160;-122.260;2022-11-15T13:04:22;3.50;90.10
54006;DHT22;39919;38.160;-122.260;2022-11-15T13:06:52;3.50;90.30
54006;DHT22;39919;38.160;-122.260;2022-11-15T13:12:10;3.50;91.20
54006;DHT22;39919;38.160;-122.260;2022-11-15T13:14:44;3.40;91.60
54006;DHT22;39919;38.160;-122.260;2022-11-15T13:19:58;3.40;91.90
54006;DHT22;39919;38.160;-122.260;2022-11-15T13:22:27;3.40;91.90
54006;DHT22;39919;38.160;-122.260;2022-11-15T13:25:30;3.40;92.40
54006;DHT22;39919;38.160;-122.260;2022-11-15T13:28:09;3.40;92.60
54006;DHT22;39919;38.160;-122.260;2022-11-15T13:30:38;3.40;92.50
54006;DHT22;39919;38.160;-122.260;2022-11-15T13:33:07;3.40;92.10
54006;DHT22;39919;38.160;-122.260;2022-11-15T13:35:38;3.30;91.70
54006;DHT22;39919;38.160;-122.260;2022-11-15T13:38:12;3.40;91.30
54006;DHT22;39919;38.160;-122.260;2022-11-15T13:40:45;3.30;91.00
54006;DHT22;39919;38.160;-122.260;2022-11-15T13:43:26;3.30;91.10
54006;DHT22;39919;38.160;-122.260;2022-11-15T13:46:09;3.30;91.50
54006;DHT22;39919;38.160;-122.260;2022-11-15T13:48:38;3.30;91.60
54006;DHT22;39919;38.160;-122.260;2022-11-15T13:51:07;3.20;91.50
54006;DHT22;39919;38.160;-122.260;2022-11-15T13:53:38;3.20;91.50
54006;DHT22;39919;38.160;-122.260;2022-11-15T13:56:08;3.20;91.10
54006;DHT22;39919;38.160;-122.260;2022-11-15T13:58:39;3.20;90.80
54006;DHT22;39919;38.160;-122.260;2022-11-15T14:01:11;3.20;90.50
54006;DHT22;39919;38.160;-122.260;2022-11-15T14:03:42;3.20;90.70
54006;DHT22;39919;38.160;-122.260;2022-11-15T14:06:15;3.10;91.30
54006;DHT22;39919;38.160;-122.260;2022-11-15T14:08:57;3.10;91.50
54006;DHT22;39919;38.160;-122.260;2022-11-15T14:11:25;3.10;91.50
54006;DHT22;39919;38.160;-122.260;2022-11-15T14:14:10;3.10;91.60
54006;DHT22;39919;38.160;-122.260;2022-11-15T14:16:40;3.10;91.50
54006;DHT22;39919;38.160;-122.260;2022-11-15T14:19:10;3.10;91.70
54006;DHT22;39919;38.160;-122.260;2022-11-15T14:24:21;3.00;91.10
54006;DHT22;39919;38.160;-122.260;2022-11-15T14:26:50;3.00;91.50
54006;DHT22;39919;38.160;-122.260;2022-11-15T14:29:24;3.00;92.00
54006;DHT22;39919;38.160;-122.260;2022-11-15T14:31:53;3.00;92.10
54006;DHT22;39919;38.160;-122.260;2022-11-15T14:34:21;2.90;91.90
54006;DHT22;39919;38.160;-122.260;2022-11-15T14:36:49;2.90;91.60
54006;DHT22;39919;38.160;-122.260;2022-11-15T14:39:18;2.90;91.40
54006;DHT22;39919;38.160;-122.260;2022-11-15T14:41:47;2.90;91.70
54006;DHT22;39919;38.160;-122.260;2022-11-15T14:44:15;2.90;92.60
54006;DHT22;39919;38.160;-122.260;2022-11-15T14:46:46;2.90;92.70
54006;DHT22;39919;38.160;-122.260;2022-11-15T14:49:14;2.90;92.50
54006;DHT22;39919;38.160;-122.260;2022-11-15T14:51:42;2.80;92.90
54006;DHT22;39919;38.160;-122.260;2022-11-15T14:54:10;2.80;93.10
54006;DHT22;39919;38.160;-122.260;2022-11-15T14:56:39;2.80;93.10
54006;DHT22;39919;38.160;-122.260;2022-11-15T14:59:08;2.80;93.10
54006;DHT22;39919;38.160;-122.260;2022-11-15T15:01:36;2.80;93.20
54006;DHT22;39919;38.160;-122.260;2022-11-15T15:04:08;2.80;92.90
54006;DHT22;39919;38.160;-122.260;2022-11-15T15:06:36;2.80;92.90
54006;DHT22;39919;38.160;-122.260;2022-11-15T15:09:05;2.90;92.70
54006;DHT22;39919;38.160;-122.260;2022-11-15T15:11:33;2.80;92.50
54006;DHT22;39919;38.160;-122.260;2022-11-15T15:14:01;2.80;92.30
54006;DHT22;39919;38.160;-122.260;2022-11-15T15:16:30;2.80;92.50
54006;DHT22;39919;38.160;-122.260;2022-11-15T15:18:59;2.90;92.50
54006;DHT22;39919;38.160;-122.260;2022-11-15T15:21:29;2.90;92.30
54006;DHT22;39919;38.160;-122.260;2022-11-15T15:23:58;2.90;92.70
54006;DHT22;39919;38.160;-122.260;2022-11-15T15:26:26;2.90;93.40
54006;DHT22;39919;38.160;-122.260;2022-11-15T15:28:54;3.00;94.10
54006;DHT22;39919;38.160;-122.260;2022-11-15T15:31:23;3.00;94.30
54006;DHT22;39919;38.160;-122.260;2022-11-15T15:33:51;3.00;94.50
54006;DHT22;39919;38.160;-122.260;2022-11-15T15:36:19;3.10;95.90
54006;DHT22;39919;38.160;-122.260;2022-11-15T15:38:49;3.10;96.10
54006;DHT22;39919;38.160;-122.260;2022-11-15T15:41:18;3.20;96.10
54006;DHT22;39919;38.160;-122.260;2022-11-15T15:43:47;3.30;96.70
54006;DHT22;39919;38.160;-122.260;2022-11-15T15:46:15;3.30;97.30
54006;DHT22;39919;38.160;-122.260;2022-11-15T15:48:44;3.40;97.30
54006;DHT22;39919;38.160;-122.260;2022-11-15T15:51:12;3.50;97.10